sensor_id;sensor_type;location;lat;lon;timestamp;temperature;humidity
59309;DHT22;48433;53.016;-2.260;2023-07-31T00:00:53;15.90;99.90
59309;DHT22;48433;53.016;-2.260;2023-07-31T00:03:21;15.90;99.90
59309;DHT22;48433;53.016;-2.260;2023-07-31T00:05:49;15.90;99.90
59309;DHT22;48433;53.016;-2.260;2023-07-31T00:08:16;15.90;99.90
59309;DHT22;48433;53.016;-2.260;2023-07-31T00:10:44;15.90;99.90
59309;DHT22;48433;53.016;-2.260;2023-07-31T00:13:12;15.90;99.90
59309;DHT22;48433;53.016;-2.260;2023-07-31T00:15:39;15.90;99.90
59309;DHT22;48433;53.016;-2.260;2023-07-31T00:18:07;15.90;99.90
59309;DHT22;48433;53.016;-2.260;2023-07-31T00:20:34;15.90;99.90
59309;DHT22;48433;53.016;-2.260;2023-07-31T00:23:02;15.90;99.90
59309;DHT22;48433;53.016;-2.260;2023-07-31T00:25:30;15.90;99.90
59309;DHT22;48433;53.016;-2.260;2023-07-31T00:27:57;15.90;99.90
59309;DHT22;48433;53.016;-2.260;2023-07-31T00:30:26;15.90;99.90
59309;DHT22;48433;53.016;-2.260;2023-07-31T00:32:54;15.90;99.90
59309;DHT22;48433;53.016;-2.260;2023-07-31T00:35:22;15.90;99.90
59309;DHT22;48433;53.016;-2.260;2023-07-31T00:37:49;15.90;99.90
59309;DHT22;48433;53.016;-2.260;2023-07-31T00:40:17;15.90;99.90
59309;DHT22;48433;53.016;-2.260;2023-07-31T00:42:44;15.90;99.90
59309;DHT22;48433;53.016;-2.260;2023-07-31T00:45:12;15.90;99.90
59309;DHT22;48433;53.016;-2.260;2023-07-31T00:47:40;15.90;99.90
59309;DHT22;48433;53.016;-2.260;2023-07-31T00:50:08;15.80;99.90
59309;DHT22;48433;53.016;-2.260;2023-07-31T00:52:36;15.90;99.90
59309;DHT22;48433;53.016;-2.260;2023-07-31T00:55:04;15.90;99.90
59309;DHT22;48433;53.016;-2.260;2023-07-31T00:57:33;15.90;99.90
59309;DHT22;48433;53.016;-2.260;2023-07-31T01:00:02;15.90;99.90
59309;DHT22;48433;53.016;-2.260;2023-07-31T01:02:31;15.90;99.90
59309;DHT22;48433;53.016;-2.260;2023-07-31T01:04:59;15.90;99.90
59309;DHT22;48433;53.016;-2.260;2023-07-31T01:10:27;15.90;99.90
59309;DHT22;48433;53.016;-2.260;2023-07-31T01:12:58;15.90;99.90
59309;DHT22;48433;53.016;-2.260;2023-07-31T01:15:26;15.90;99.90
59309;DHT22;48433;53.016;-2.260;2023-07-31T01:17:54;16.00;99.90
59309;DHT22;48433;53.016;-2.260;2023-07-31T01:20:23;16.00;99.90
59309;DHT22;48433;53.016;-2.260;2023-07-31T01:28:25;16.00;99.90
59309;DHT22;48433;53.016;-2.260;2023-07-31T01:30:56;16.10;99.90
59309;DHT22;48433;53.016;-2.260;2023-07-31T01:33:26;16.10;99.90
59309;DHT22;48433;53.016;-2.260;2023-07-31T01:35:54;16.10;99.90
59309;DHT22;48433;53.016;-2.260;2023-07-31T01:38:22;16.10;99.90
59309;DHT22;48433;53.016;-2.260;2023-07-31T01:40:53;16.10;99.90
59309;DHT22;48433;53.016;-2.260;2023-07-31T01:43:20;16.20;99.90
59309;DHT22;48433;53.016;-2.260;2023-07-31T01:45:49;16.20;99.90
59309;DHT22;48433;53.016;-2.260;2023-07-31T01:48:17;16.20;99.90
59309;DHT22;48433;53.016;-2.260;2023-07-31T01:50:45;16.20;99.90
59309;DHT22;48433;53.016;-2.260;2023-07-31T01:53:13;16.20;99.90
59309;DHT22;48433;53.016;-2.260;2023-07-31T01:55:41;16.30;99.90
59309;DHT22;48433;53.016;-2.260;2023-07-31T01:58:09;16.30;99.90
59309;DHT22;48433;53.016;-2.260;2023-07-31T02:00:37;16.30;99.90
59309;DHT22;48433;53.016;-2.260;2023-07-31T02:03:04;16.30;99.90
59309;DHT22;48433;53.016;-2.260;2023-07-31T02:05:32;16.30;99.90
59309;DHT22;48433;53.016;-2.260;2023-07-31T02:08:00;16.30;99.90
59309;DHT22;48433;53.016;-2.260;2023-07-31T02:10:31;16.30;99.90
59309;DHT22;48433;53.016;-2.260;2023-07-31T02:12:59;16.30;99.90
59309;DHT22;48433;53.016;-2.260;2023-07-31T02:15:27;16.40;99.90
59309;DHT22;48433;53.016;-2.260;2023-07-31T02:17:55;16.40;99.90
59309;DHT22;48433;53.016;-2.260;2023-07-31T02:20:22;16.40;99.90
59309;DHT22;48433;53.016;-2.260;2023-07-31T02:22:50;16.40;99.90
59309;DHT22;48433;53.016;-2.260;2023-07-31T02:25:19;16.40;99.90
59309;DHT22;48433;53.016;-2.260;2023-07-31T02:27:46;16.50;99.90
59309;DHT22;48433;53.016;-2.260;2023-07-31T02:30:15;16.50;99.90
59309;DHT22;48433;53.016;-2.260;2023-07-31T02:32:44;16.50;99.90
59309;DHT22;48433;53.016;-2.260;2023-07-31T02:35:12;16.50;99.90
59309;DHT22;48433;53.016;-2.260;2023-07-31T02:37:42;16.60;99.90
59309;DHT22;48433;53.016;-2.260;2023-07-31T02:40:10;16.60;99.90
59309;DHT22;48433;53.016;-2.260;2023-07-31T02:42:38;16.60;99.90
59309;DHT22;48433;53.016;-2.260;2023-07-31T02:45:06;16.60;99.90
59309;DHT22;48433;53.016;-2.260;2023-07-31T02:47:34;16.60;99.90
59309;DHT22;48433;53.016;-2.260;2023-07-31T02:50:03;16.70;99.90
59309;DHT22;48433;53.016;-2.260;2023-07-31T02:52:31;16.60;99.90
59309;DHT22;48433;53.016;-2.260;2023-07-31T02:54:58;16.70;99.90
59309;DHT22;48433;53.016;-2.260;2023-07-31T02:57:26;16.70;99.90
59309;DHT22;48433;53.016;-2.260;2023-07-31T02:59:54;16.70;99.90
59309;DHT22;48433;53.016;-2.260;2023-07-31T03:02:21;16.70;99.90
59309;DHT22;48433;53.016;-2.260;2023-07-31T03:04:49;16.70;99.90
59309;DHT22;48433;53.016;-2.260;2023-07-31T03:07:17;16.70;99.90
59309;DHT22;48433;53.016;-2.260;2023-07-31T03:09:45;16.70;99.90
59309;DHT22;48433;53.016;-2.260;2023-07-31T03:12:12;16.80;99.90
59309;DHT22;48433;53.016;-2.260;2023-07-31T03:14:40;16.70;99.90
59309;DHT22;48433;53.016;-2.260;2023-07-31T03:17:08;16.70;99.90
59309;DHT22;48433;53.016;-2.260;2023-07-31T03:19:35;16.80;99.90
59309;DHT22;48433;53.016;-2.260;2023-07-31T03:22:03;16.80;99.90
59309;DHT22;48433;53.016;-2.260;2023-07-31T03:24:31;16.80;99.90
59309;DHT22;48433;53.016;-2.260;2023-07-31T03:26:58;16.80;99.90
59309;DHT22;48433;53.016;-2.260;2023-07-31T03:29:27;16.80;99.90
59309;DHT22;48433;53.016;-2.260;2023-07-31T03:31:54;16.80;99.90
59309;DHT22;48433;53.016;-2.260;2023-07-31T03:34:22;16.80;99.90
59309;DHT22;48433;53.016;-2.260;2023-07-31T03:36:49;16.80;99.90
59309;DHT22;48433;53.016;-2.260;2023-07-31T03:39:17;16.80;99.90
59309;DHT22;48433;53.016;-2.260;2023-07-31T03:41:45;16.70;99.90
59309;DHT22;48433;53.016;-2.260;2023-07-31T03:44:12;16.80;99.90
59309;DHT22;48433;53.016;-2.260;2023-07-31T03:46:40;16.80;99.90
59309;DHT22;48433;53.016;-2.260;2023-07-31T03:49:08;16.70;99.90
59309;DHT22;48433;53.016;-2.260;2023-07-31T03:51:35;16.70;99.90
59309;DHT22;48433;53.016;-2.260;2023-07-31T03:54:03;16.70;99.90
59309;DHT22;48433;53.016;-2.260;2023-07-31T03:56:31;16.60;99.90
59309;DHT22;48433;53.016;-2.260;2023-07-31T03:59:02;16.60;99.90
59309;DHT22;48433;53.016;-2.260;2023-07-31T04:01:30;16.60;99.90
59309;DHT22;48433;53.016;-2.260;2023-07-31T04:03:57;16.60;99.90
59309;DHT22;48433;53.016;-2.260;2023-07-31T04:06:25;16.60;99.90
59309;DHT22;48433;53.016;-2.260;2023-07-31T04:08:52;16.50;99.90
59309;DHT22;48433;53.016;-2.260;2023-07-31T04:11:20;16.50;99.90
59309;DHT22;48433;53.016;-2.260;2023-07-31T04:13:48;16.50;99.90
59309;DHT22;48433;53.016;-2.260;2023-07-31T04:16:15;16.50;99.90
59309;DHT22;48433;53.016;-2.260;2023-07-31T04:18:43;16.50;99.90
59309;DHT22;48433;53.016;-2.260;2023-07-31T04:21:11;16.40;99.90
59309;DHT22;48433;53.016;-2.260;2023-07-31T04:23:39;16.40;99.90
59309;DHT22;48433;53.016;-2.260;2023-07-31T04:26:06;16.40;99.90
59309;DHT22;48433;53.016;-2.260;2023-07-31T04:28:34;16.30;99.90
59309;DHT22;48433;53.016;-2.260;2023-07-31T04:31:02;16.30;99.90
59309;DHT22;48433;53.016;-2.260;2023-07-31T04:33:29;16.30;99.90
59309;DHT22;48433;53.016;-2.260;2023-07-31T04:35:58;16.30;99.90
59309;DHT22;48433;53.016;-2.260;2023-07-31T04:38:25;16.30;99.90
59309;DHT22;48433;53.016;-2.260;2023-07-31T04:40:53;16.30;99.90
59309;DHT22;48433;53.016;-2.260;2023-07-31T04:43:20;16.40;99.90
59309;DHT22;48433;53.016;-2.260;2023-07-31T04:45:48;16.40;99.90
59309;DHT22;48433;53.016;-2.260;2023-07-31T04:48:17;16.40;99.90
59309;DHT22;48433;53.016;-2.260;2023-07-31T04:50:44;16.50;99.90
59309;DHT22;48433;53.016;-2.260;2023-07-31T04:53:12;16.50;99.90
59309;DHT22;48433;53.016;-2.260;2023-07-31T04:55:40;16.50;99.90
59309;DHT22;48433;53.016;-2.260;2023-07-31T04:58:07;16.50;99.90
59309;DHT22;48433;53.016;-2.260;2023-07-31T05:00:35;16.60;99.90
59309;DHT22;48433;53.016;-2.260;2023-07-31T05:03:03;16.60;99.90
59309;DHT22;48433;53.016;-2.260;2023-07-31T05:05:30;16.50;99.90
59309;DHT22;48433;53.016;-2.260;2023-07-31T05:07:58;16.60;99.90
59309;DHT22;48433;53.016;-2.260;2023-07-31T05:10:26;16.50;99.90
59309;DHT22;48433;53.016;-2.260;2023-07-31T05:12:53;16.60;99.90
59309;DHT22;48433;53.016;-2.260;2023-07-31T05:15:21;16.60;99.90
59309;DHT22;48433;53.016;-2.260;2023-07-31T05:17:48;16.60;99.90
59309;DHT22;48433;53.016;-2.260;2023-07-31T05:20:16;16.60;99.90
59309;DHT22;48433;53.016;-2.260;2023-07-31T05:22:44;16.60;99.90
59309;DHT22;48433;53.016;-2.260;2023-07-31T05:25:11;16.60;99.90
59309;DHT22;48433;53.016;-2.260;2023-07-31T05:27:39;16.50;99.90
59309;DHT22;48433;53.016;-2.260;2023-07-31T05:30:07;16.60;99.90
59309;DHT22;48433;53.016;-2.260;2023-07-31T05:32:35;16.60;99.90
59309;DHT22;48433;53.016;-2.260;2023-07-31T05:35:03;16.60;99.90
59309;DHT22;48433;53.016;-2.260;2023-07-31T05:37:31;16.60;99.90
59309;DHT22;48433;53.016;-2.260;2023-07-31T05:39:58;16.60;99.90
59309;DHT22;48433;53.016;-2.260;2023-07-31T05:42:26;16.70;99.90
59309;DHT22;48433;53.016;-2.260;2023-07-31T05:44:53;16.60;99.90
59309;DHT22;48433;53.016;-2.260;2023-07-31T05:47:21;16.70;99.90
59309;DHT22;48433;53.016;-2.260;2023-07-31T05:49:49;16.70;99.90
59309;DHT22;48433;53.016;-2.260;2023-07-31T05:52:19;16.70;99.90
59309;DHT22;48433;53.016;-2.260;2023-07-31T05:54:47;16.80;99.90
59309;DHT22;48433;53.016;-2.260;2023-07-31T05:57:15;16.90;99.90
59309;DHT22;48433;53.016;-2.260;2023-07-31T05:59:42;16.90;99.90
59309;DHT22;48433;53.016;-2.260;2023-07-31T06:02:10;16.90;99.90
59309;DHT22;48433;53.016;-2.260;2023-07-31T06:04:37;16.90;99.90
59309;DHT22;48433;53.016;-2.260;2023-07-31T06:07:05;17.00;99.90
59309;DHT22;48433;53.016;-2.260;2023-07-31T06:09:33;17.10;99.90
59309;DHT22;48433;53.016;-2.260;2023-07-31T06:12:01;17.00;99.90
59309;DHT22;48433;53.016;-2.260;2023-07-31T06:14:28;17.10;99.90
59309;DHT22;48433;53.016;-2.260;2023-07-31T06:16:56;17.10;99.90
59309;DHT22;48433;53.016;-2.260;2023-07-31T06:21:52;17.20;99.90
59309;DHT22;48433;53.016;-2.260;2023-07-31T06:24:19;17.20;99.90
59309;DHT22;48433;53.016;-2.260;2023-07-31T06:26:48;17.20;99.90
59309;DHT22;48433;53.016;-2.260;2023-07-31T06:29:15;17.20;99.90
59309;DHT22;48433;53.016;-2.260;2023-07-31T06:31:43;17.10;99.90
59309;DHT22;48433;53.016;-2.260;2023-07-31T06:34:11;17.10;99.90
59309;DHT22;48433;53.016;-2.260;2023-07-31T06:36:39;17.10;99.90
59309;DHT22;48433;53.016;-2.260;2023-07-31T06:39:07;17.10;99.90
59309;DHT22;48433;53.016;-2.260;2023-07-31T06:41:34;17.10;99.90
59309;DHT22;48433;53.016;-2.260;2023-07-31T06:44:06;17.20;99.90
59309;DHT22;48433;53.016;-2.260;2023-07-31T06:46:33;17.20;99.90
59309;DHT22;48433;53.016;-2.260;2023-07-31T06:49:01;17.20;99.90
59309;DHT22;48433;53.016;-2.260;2023-07-31T06:51:28;17.20;99.90
59309;DHT22;48433;53.016;-2.260;2023-07-31T06:53:58;17.20;99.90
59309;DHT22;48433;53.016;-2.260;2023-07-31T06:56:26;17.20;99.90
59309;DHT22;48433;53.016;-2.260;2023-07-31T06:58:55;17.20;99.90
59309;DHT22;48433;53.016;-2.260;2023-07-31T07:01:23;17.20;99.90
59309;DHT22;48433;53.016;-2.260;2023-07-31T07:03:51;17.10;99.90
59309;DHT22;48433;53.016;-2.260;2023-07-31T07:06:19;17.10;99.90
59309;DHT22;48433;53.016;-2.260;2023-07-31T07:08:46;17.10;99.90
59309;DHT22;48433;53.016;-2.260;2023-07-31T07:11:14;17.10;99.90
59309;DHT22;48433;53.016;-2.260;2023-07-31T07:13:41;17.10;99.90
59309;DHT22;48433;53.016;-2.260;2023-07-31T07:16:09;17.10;99.90
59309;DHT22;48433;53.016;-2.260;2023-07-31T07:18:37;17.00;99.90
59309;DHT22;48433;53.016;-2.260;2023-07-31T07:21:13;16.90;99.90
59309;DHT22;48433;53.016;-2.260;2023-07-31T07:23:43;16.90;99.90
59309;DHT22;48433;53.016;-2.260;2023-07-31T07:26:10;16.90;99.90
59309;DHT22;48433;53.016;-2.260;2023-07-31T07:28:38;16.90;99.90
59309;DHT22;48433;53.016;-2.260;2023-07-31T07:31:05;16.90;99.90
59309;DHT22;48433;53.016;-2.260;2023-07-31T07:33:33;16.90;99.90
59309;DHT22;48433;53.016;-2.260;2023-07-31T07:36:01;16.90;99.90
59309;DHT22;48433;53.016;-2.260;2023-07-31T07:38:29;17.00;99.90
59309;DHT22;48433;53.016;-2.260;2023-07-31T07:40:56;17.00;99.90
59309;DHT22;48433;53.016;-2.260;2023-07-31T07:43:24;16.90;99.90
59309;DHT22;48433;53.016;-2.260;2023-07-31T07:45:52;17.00;99.90
59309;DHT22;48433;53.016;-2.260;2023-07-31T07:48:22;17.00;99.90
59309;DHT22;48433;53.016;-2.260;2023-07-31T07:50:49;16.90;99.90
59309;DHT22;48433;53.016;-2.260;2023-07-31T07:53:17;17.00;99.90
59309;DHT22;48433;53.016;-2.260;2023-07-31T07:55:44;17.00;99.90
59309;DHT22;48433;53.016;-2.260;2023-07-31T07:58:12;17.10;99.90
59309;DHT22;48433;53.016;-2.260;2023-07-31T08:00:40;17.00;99.90
59309;DHT22;48433;53.016;-2.260;2023-07-31T08:03:07;17.00;99.90
59309;DHT22;48433;53.016;-2.260;2023-07-31T08:05:35;17.00;99.90
59309;DHT22;48433;53.016;-2.260;2023-07-31T08:08:03;17.10;99.90
59309;DHT22;48433;53.016;-2.260;2023-07-31T08:10:31;17.00;99.90
59309;DHT22;48433;53.016;-2.260;2023-07-31T08:12:58;17.10;99.90
59309;DHT22;48433;53.016;-2.260;2023-07-31T08:15:26;17.10;99.90
59309;DHT22;48433;53.016;-2.260;2023-07-31T08:17:53;17.10;99.90
59309;DHT22;48433;53.016;-2.260;2023-07-31T08:20:21;17.10;99.90
59309;DHT22;48433;53.016;-2.260;2023-07-31T08:22:49;17.10;99.90
59309;DHT22;48433;53.016;-2.260;2023-07-31T08:25:16;17.20;99.90
59309;DHT22;48433;53.016;-2.260;2023-07-31T08:27:44;17.20;99.90
59309;DHT22;48433;53.016;-2.260;2023-07-31T08:30:12;17.20;99.90
59309;DHT22;48433;53.016;-2.260;2023-07-31T08:32:39;17.20;99.90
59309;DHT22;48433;53.016;-2.260;2023-07-31T08:35:07;17.30;99.90
59309;DHT22;48433;53.016;-2.260;2023-07-31T08:37:35;17.20;99.90
59309;DHT22;48433;53.016;-2.260;2023-07-31T08:40:04;17.30;99.90
59309;DHT22;48433;53.016;-2.260;2023-07-31T08:42:32;17.30;99.90
59309;DHT22;48433;53.016;-2.260;2023-07-31T08:44:59;17.40;99.90
59309;DHT22;48433;53.016;-2.260;2023-07-31T08:47:28;17.40;99.90
59309;DHT22;48433;53.016;-2.260;2023-07-31T08:49:57;17.50;99.90
59309;DHT22;48433;53.016;-2.260;2023-07-31T08:52:25;17.50;99.90
59309;DHT22;48433;53.016;-2.260;2023-07-31T08:54:52;17.70;99.90
59309;DHT22;48433;53.016;-2.260;2023-07-31T08:57:20;17.80;99.90
59309;DHT22;48433;53.016;-2.260;2023-07-31T08:59:47;18.20;99.90
59309;DHT22;48433;53.016;-2.260;2023-07-31T09:02:17;18.20;99.90
59309;DHT22;48433;53.016;-2.260;2023-07-31T09:04:46;18.40;99.90
59309;DHT22;48433;53.016;-2.260;2023-07-31T09:07:15;18.50;99.90
59309;DHT22;48433;53.016;-2.260;2023-07-31T09:09:43;18.60;99.90
59309;DHT22;48433;53.016;-2.260;2023-07-31T09:12:10;18.50;99.90
59309;DHT22;48433;53.016;-2.260;2023-07-31T09:14:38;18.50;99.90
59309;DHT22;48433;53.016;-2.260;2023-07-31T09:17:06;18.40;99.90
59309;DHT22;48433;53.016;-2.260;2023-07-31T09:22:05;18.40;99.90
59309;DHT22;48433;53.016;-2.260;2023-07-31T09:24:34;18.50;99.90
59309;DHT22;48433;53.016;-2.260;2023-07-31T09:27:02;18.70;99.90
59309;DHT22;48433;53.016;-2.260;2023-07-31T09:29:30;18.90;99.90
59309;DHT22;48433;53.016;-2.260;2023-07-31T09:31:58;19.00;99.90
59309;DHT22;48433;53.016;-2.260;2023-07-31T09:34:37;18.90;99.90
59309;DHT22;48433;53.016;-2.260;2023-07-31T09:37:06;18.80;99.90
59309;DHT22;48433;53.016;-2.260;2023-07-31T09:39:46;18.50;99.90
59309;DHT22;48433;53.016;-2.260;2023-07-31T09:42:14;18.40;99.90
59309;DHT22;48433;53.016;-2.260;2023-07-31T09:44:41;18.30;99.90
59309;DHT22;48433;53.016;-2.260;2023-07-31T09:47:24;18.20;99.90
59309;DHT22;48433;53.016;-2.260;2023-07-31T09:49:53;18.00;99.90
59309;DHT22;48433;53.016;-2.260;2023-07-31T09:52:21;18.00;99.90
59309;DHT22;48433;53.016;-2.260;2023-07-31T09:54:49;17.90;99.90
59309;DHT22;48433;53.016;-2.260;2023-07-31T09:57:17;17.80;99.90
59309;DHT22;48433;53.016;-2.260;2023-07-31T09:59:47;17.60;99.90
59309;DHT22;48433;53.016;-2.260;2023-07-31T10:02:22;17.60;99.90
59309;DHT22;48433;53.016;-2.260;2023-07-31T10:04:50;17.50;99.90
59309;DHT22;48433;53.016;-2.260;2023-07-31T10:07:18;17.40;99.90
59309;DHT22;48433;53.016;-2.260;2023-07-31T10:09:48;17.30;99.90
59309;DHT22;48433;53.016;-2.260;2023-07-31T10:12:19;17.30;99.90
59309;DHT22;48433;53.016;-2.260;2023-07-31T10:14:50;17.20;99.90
59309;DHT22;48433;53.016;-2.260;2023-07-31T10:17:21;17.20;99.90
59309;DHT22;48433;53.016;-2.260;2023-07-31T10:19:50;17.10;99.90
59309;DHT22;48433;53.016;-2.260;2023-07-31T10:22:21;17.10;99.90
59309;DHT22;48433;53.016;-2.260;2023-07-31T10:24:50;17.20;99.90
59309;DHT22;48433;53.016;-2.260;2023-07-31T10:27:19;17.10;99.90
59309;DHT22;48433;53.016;-2.260;2023-07-31T10:29:47;17.10;99.90
59309;DHT22;48433;53.016;-2.260;2023-07-31T10:32:17;17.10;99.90
59309;DHT22;48433;53.016;-2.260;2023-07-31T10:34:46;17.20;99.90
59309;DHT22;48433;53.016;-2.260;2023-07-31T10:37:36;17.10;99.90
59309;DHT22;48433;53.016;-2.260;2023-07-31T10:42:54;17.10;99.90
59309;DHT22;48433;53.016;-2.260;2023-07-31T10:45:34;17.20;99.90
59309;DHT22;48433;53.016;-2.260;2023-07-31T10:50:50;17.20;99.90
59309;DHT22;48433;53.016;-2.260;2023-07-31T10:53:32;17.20;99.90
59309;DHT22;48433;53.016;-2.260;2023-07-31T10:56:01;17.10;99.90
59309;DHT22;48433;53.016;-2.260;2023-07-31T10:58:30;17.20;99.90
59309;DHT22;48433;53.016;-2.260;2023-07-31T11:01:03;17.20;99.90
59309;DHT22;48433;53.016;-2.260;2023-07-31T11:03:43;17.20;99.90
59309;DHT22;48433;53.016;-2.260;2023-07-31T11:06:12;17.20;99.90
59309;DHT22;48433;53.016;-2.260;2023-07-31T11:08:49;17.10;99.90
59309;DHT22;48433;53.016;-2.260;2023-07-31T11:11:18;17.00;99.90
59309;DHT22;48433;53.016;-2.260;2023-07-31T11:13:47;17.00;99.90
59309;DHT22;48433;53.016;-2.260;2023-07-31T11:16:20;16.80;99.90
59309;DHT22;48433;53.016;-2.260;2023-07-31T11:18:51;16.70;99.90
59309;DHT22;48433;53.016;-2.260;2023-07-31T11:21:23;16.50;99.90
59309;DHT22;48433;53.016;-2.260;2023-07-31T11:23:54;16.30;99.90
59309;DHT22;48433;53.016;-2.260;2023-07-31T11:26:24;16.20;99.90
59309;DHT22;48433;53.016;-2.260;2023-07-31T11:28:52;16.10;99.90
59309;DHT22;48433;53.016;-2.260;2023-07-31T11:31:20;15.90;99.90
59309;DHT22;48433;53.016;-2.260;2023-07-31T11:33:48;15.90;99.90
59309;DHT22;48433;53.016;-2.260;2023-07-31T11:36:20;15.80;99.90
59309;DHT22;48433;53.016;-2.260;2023-07-31T11:38:48;15.80;99.90
59309;DHT22;48433;53.016;-2.260;2023-07-31T11:41:16;15.80;99.90
59309;DHT22;48433;53.016;-2.260;2023-07-31T11:43:46;15.90;99.90
59309;DHT22;48433;53.016;-2.260;2023-07-31T11:46:15;15.90;99.90
59309;DHT22;48433;53.016;-2.260;2023-07-31T11:48:43;15.90;99.90
59309;DHT22;48433;53.016;-2.260;2023-07-31T11:51:12;15.90;99.90
59309;DHT22;48433;53.016;-2.260;2023-07-31T11:53:44;16.00;99.90
59309;DHT22;48433;53.016;-2.260;2023-07-31T11:56:14;16.10;99.90
59309;DHT22;48433;53.016;-2.260;2023-07-31T11:58:46;16.10;99.90
59309;DHT22;48433;53.016;-2.260;2023-07-31T12:01:15;16.20;99.90
59309;DHT22;48433;53.016;-2.260;2023-07-31T12:03:45;16.30;99.90
59309;DHT22;48433;53.016;-2.260;2023-07-31T12:06:14;16.40;99.90
59309;DHT22;48433;53.016;-2.260;2023-07-31T12:08:41;16.40;99.90
59309;DHT22;48433;53.016;-2.260;2023-07-31T12:11:09;16.30;99.90
59309;DHT22;48433;53.016;-2.260;2023-07-31T12:13:37;16.20;99.90
59309;DHT22;48433;53.016;-2.260;2023-07-31T12:16:05;16.10;99.90
59309;DHT22;48433;53.016;-2.260;2023-07-31T12:18:37;16.10;99.90
59309;DHT22;48433;53.016;-2.260;2023-07-31T12:21:07;16.00;99.90
59309;DHT22;48433;53.016;-2.260;2023-07-31T12:23:37;16.00;99.90
59309;DHT22;48433;53.016;-2.260;2023-07-31T12:26:09;15.90;99.90
59309;DHT22;48433;53.016;-2.260;2023-07-31T12:28:43;15.90;99.90
59309;DHT22;48433;53.016;-2.260;2023-07-31T12:31:19;15.80;99.90
59309;DHT22;48433;53.016;-2.260;2023-07-31T12:33:49;15.80;99.90
59309;DHT22;48433;53.016;-2.260;2023-07-31T12:36:22;15.80;99.90
59309;DHT22;48433;53.016;-2.260;2023-07-31T12:38:51;15.70;99.90
59309;DHT22;48433;53.016;-2.260;2023-07-31T12:41:19;15.70;99.90
59309;DHT22;48433;53.016;-2.260;2023-07-31T12:43:46;15.70;99.90
59309;DHT22;48433;53.016;-2.260;2023-07-31T12:46:14;15.70;99.90
59309;DHT22;48433;53.016;-2.260;2023-07-31T12:48:42;15.80;99.90
59309;DHT22;48433;53.016;-2.260;2023-07-31T12:51:10;15.80;99.90
59309;DHT22;48433;53.016;-2.260;2023-07-31T12:53:37;15.80;99.90
59309;DHT22;48433;53.016;-2.260;2023-07-31T12:56:05;15.80;99.90
59309;DHT22;48433;53.016;-2.260;2023-07-31T12:58:32;15.80;99.90
59309;DHT22;48433;53.016;-2.260;2023-07-31T13:01:00;15.80;99.90
59309;DHT22;48433;53.016;-2.260;2023-07-31T13:03:29;15.80;99.90
59309;DHT22;48433;53.016;-2.260;2023-07-31T13:05:57;15.80;99.90
59309;DHT22;48433;53.016;-2.260;2023-07-31T13:08:25;15.80;99.90
59309;DHT22;48433;53.016;-2.260;2023-07-31T13:10:52;15.80;99.90
59309;DHT22;48433;53.016;-2.260;2023-07-31T13:13:20;15.80;99.90
59309;DHT22;48433;53.016;-2.260;2023-07-31T13:15:49;15.80;99.90
59309;DHT22;48433;53.016;-2.260;2023-07-31T13:18:17;15.80;99.90
59309;DHT22;48433;53.016;-2.260;2023-07-31T13:20:44;15.70;99.90
59309;DHT22;48433;53.016;-2.260;2023-07-31T13:23:12;15.70;99.90
59309;DHT22;48433;53.016;-2.260;2023-07-31T13:25:39;15.70;99.90
59309;DHT22;48433;53.016;-2.260;2023-07-31T13:28:07;15.70;99.90
59309;DHT22;48433;53.016;-2.260;2023-07-31T13:30:35;15.70;99.90
59309;DHT22;48433;53.016;-2.260;2023-07-31T13:33:02;15.70;99.90
59309;DHT22;48433;53.016;-2.260;2023-07-31T13:35:31;15.70;99.90
59309;DHT22;48433;53.016;-2.260;2023-07-31T13:37:59;15.70;99.90
59309;DHT22;48433;53.016;-2.260;2023-07-31T13:40:26;15.60;99.90
59309;DHT22;48433;53.016;-2.260;2023-07-31T13:42:54;15.70;99.90
59309;DHT22;48433;53.016;-2.260;2023-07-31T13:45:23;15.60;99.90
59309;DHT22;48433;53.016;-2.260;2023-07-31T13:47:50;15.70;99.90
59309;DHT22;48433;53.016;-2.260;2023-07-31T13:50:19;15.70;99.90
59309;DHT22;48433;53.016;-2.260;2023-07-31T13:52:48;15.70;99.90
59309;DHT22;48433;53.016;-2.260;2023-07-31T13:55:16;15.80;99.90
59309;DHT22;48433;53.016;-2.260;2023-07-31T13:57:43;15.80;99.90
59309;DHT22;48433;53.016;-2.260;2023-07-31T14:00:12;15.90;99.90
59309;DHT22;48433;53.016;-2.260;2023-07-31T14:02:39;15.90;99.90
59309;DHT22;48433;53.016;-2.260;2023-07-31T14:05:07;15.90;99.90
59309;DHT22;48433;53.016;-2.260;2023-07-31T14:07:37;16.00;99.90
59309;DHT22;48433;53.016;-2.260;2023-07-31T14:10:05;16.10;99.90
59309;DHT22;48433;53.016;-2.260;2023-07-31T14:12:33;16.10;99.90
59309;DHT22;48433;53.016;-2.260;2023-07-31T14:15:10;16.20;99.90
59309;DHT22;48433;53.016;-2.260;2023-07-31T14:17:39;16.30;99.90
59309;DHT22;48433;53.016;-2.260;2023-07-31T14:20:07;16.40;99.90
59309;DHT22;48433;53.016;-2.260;2023-07-31T14:22:35;16.40;99.90
59309;DHT22;48433;53.016;-2.260;2023-07-31T14:25:03;16.40;99.90
59309;DHT22;48433;53.016;-2.260;2023-07-31T14:27:31;16.40;99.90
59309;DHT22;48433;53.016;-2.260;2023-07-31T14:29:58;16.40;99.90
59309;DHT22;48433;53.016;-2.260;2023-07-31T14:32:26;16.40;99.90
59309;DHT22;48433;53.016;-2.260;2023-07-31T14:34:54;16.40;99.90
59309;DHT22;48433;53.016;-2.260;2023-07-31T14:37:22;16.40;99.90
59309;DHT22;48433;53.016;-2.260;2023-07-31T14:39:50;16.40;99.90
59309;DHT22;48433;53.016;-2.260;2023-07-31T14:42:18;16.30;99.90
59309;DHT22;48433;53.016;-2.260;2023-07-31T14:44:47;16.30;99.90
59309;DHT22;48433;53.016;-2.260;2023-07-31T14:47:15;16.30;99.90
59309;DHT22;48433;53.016;-2.260;2023-07-31T14:49:42;16.30;99.90
59309;DHT22;48433;53.016;-2.260;2023-07-31T14:52:10;16.30;99.90
59309;DHT22;48433;53.016;-2.260;2023-07-31T14:54:38;16.30;99.90
59309;DHT22;48433;53.016;-2.260;2023-07-31T14:57:05;16.20;99.90
59309;DHT22;48433;53.016;-2.260;2023-07-31T14:59:33;16.20;99.90
59309;DHT22;48433;53.016;-2.260;2023-07-31T15:02:01;16.10;99.90
59309;DHT22;48433;53.016;-2.260;2023-07-31T15:04:29;16.20;99.90
59309;DHT22;48433;53.016;-2.260;2023-07-31T15:06:57;16.10;99.90
59309;DHT22;48433;53.016;-2.260;2023-07-31T15:09:24;16.10;99.90
59309;DHT22;48433;53.016;-2.260;2023-07-31T15:11:52;16.10;99.90
59309;DHT22;48433;53.016;-2.260;2023-07-31T15:14:20;16.20;99.90
59309;DHT22;48433;53.016;-2.260;2023-07-31T15:16:47;16.20;99.90
59309;DHT22;48433;53.016;-2.260;2023-07-31T15:19:15;16.30;99.90
59309;DHT22;48433;53.016;-2.260;2023-07-31T15:21:43;16.40;99.90
59309;DHT22;48433;53.016;-2.260;2023-07-31T15:24:10;16.40;99.90
59309;DHT22;48433;53.016;-2.260;2023-07-31T15:26:38;16.50;99.90
59309;DHT22;48433;53.016;-2.260;2023-07-31T15:29:06;16.60;99.90
59309;DHT22;48433;53.016;-2.260;2023-07-31T15:31:39;16.70;99.90
59309;DHT22;48433;53.016;-2.260;2023-07-31T15:34:07;16.80;99.90
59309;DHT22;48433;53.016;-2.260;2023-07-31T15:36:34;17.00;99.90
59309;DHT22;48433;53.016;-2.260;2023-07-31T15:39:02;17.10;99.90
59309;DHT22;48433;53.016;-2.260;2023-07-31T15:41:30;17.30;99.90